Time;durP1;ratioP1;P1;durP2;ratioP2;P2;SDS_P1;SDS_P2;PMS_P1;PMS_P2;Temp;Humidity;BMP_temperature;BMP_pressure;BME280_temperature;BME280_humidity;BME280_pressure;Samples;Min_cycle;Max_cycle;Signal;HPM_P1;HPM_P2
2024/02/16 00:00:11;;;;;;;0.95;0.30;;;;;;;;;;2057535;28;20030;-45
2024/02/16 00:01:13;;;;;;;0.77;0.30;;;;;;;;;;2053348;28;20098;-45
2024/02/16 00:02:15;;;;;;;0.85;0.20;;;;;;;;;;2056456;28;20026;-45
2024/02/16 00:03:16;;;;;;;2.67;0.40;;;;;;;;;;2056452;28;20524;-50
2024/02/16 00:04:18;;;;;;;2.47;0.30;;;;;;;;;;2053587;28;20034;-45
2024/02/16 00:05:19;;;;;;;1.70;0.50;;;;;;;;;;2051740;28;20102;-45
2024/02/16 00:06:20;;;;;;;1.02;0.40;;;;;;;;;;2056557;28;20031;-46
2024/02/16 00:07:22;;;;;;;1.02;0.32;;;;;;;;;;2056340;28;20031;-45
2024/02/16 00:08:23;;;;;;;1.30;0.45;;;;;;;;;;2055904;28;20481;-45
2024/02/16 00:09:24;;;;;;;0.70;0.25;;;;;;;;;;2054238;28;20101;-46
2024/02/16 00:10:26;;;;;;;2.60;0.43;;;;;;;;;;2055756;28;20482;-44
2024/02/16 00:11:28;;;;;;;0.40;0.20;;;;;;;;;;2056082;28;20074;-43
2024/02/16 00:12:29;;;;;;;0.90;0.35;;;;;;;;;;2059938;28;20030;-44
2024/02/16 00:13:32;;;;;;;0.65;0.20;;;;;;;;;;2055882;28;20042;-45
2024/02/16 00:14:33;;;;;;;0.93;0.20;;;;;;;;;;2056577;28;20065;-47
2024/02/16 00:15:34;;;;;;;1.08;0.25;;;;;;;;;;2057054;28;20035;-45
2024/02/16 00:16:36;;;;;;;0.63;0.17;;;;;;;;;;2057289;28;20386;-44
2024/02/16 00:17:37;;;;;;;1.63;0.40;;;;;;;;;;2055854;28;20027;-44
2024/02/16 00:18:38;;;;;;;0.40;0.20;;;;;;;;;;2058271;28;20014;-44
2024/02/16 00:19:40;;;;;;;0.75;0.28;;;;;;;;;;2062667;28;20077;-44
2024/02/16 00:20:41;;;;;;;2.20;0.22;;;;;;;;;;2060316;28;20026;-44
2024/02/16 00:21:42;;;;;;;0.50;0.25;;;;;;;;;;2060712;28;20029;-47
2024/02/16 00:22:44;;;;;;;1.13;0.40;;;;;;;;;;2056345;28;20023;-45
2024/02/16 00:23:46;;;;;;;0.63;0.32;;;;;;;;;;2057304;28;20489;-44
2024/02/16 00:24:48;;;;;;;1.30;0.25;;;;;;;;;;2057665;28;20058;-46
2024/02/16 00:25:49;;;;;;;0.52;0.30;;;;;;;;;;2065063;28;20037;-45
2024/02/16 00:26:50;;;;;;;0.50;0.30;;;;;;;;;;2050744;28;20098;-45
2024/02/16 00:27:54;;;;;;;1.05;0.30;;;;;;;;;;2057314;28;20057;-45
2024/02/16 00:28:56;;;;;;;0.32;0.20;;;;;;;;;;2058004;28;20026;-46
2024/02/16 00:29:57;;;;;;;0.80;0.20;;;;;;;;;;2057971;28;20428;-46
2024/02/16 00:30:58;;;;;;;1.77;0.30;;;;;;;;;;2057560;28;20381;-46
2024/02/16 00:31:59;;;;;;;0.95;0.40;;;;;;;;;;2056395;28;20045;-45
2024/02/16 00:33:01;;;;;;;0.40;0.20;;;;;;;;;;2059028;28;20062;-46
2024/02/16 00:34:02;;;;;;;1.83;0.20;;;;;;;;;;2056566;28;20378;-46
2024/02/16 00:35:03;;;;;;;0.77;0.47;;;;;;;;;;2057079;28;20046;-47
2024/02/16 00:36:05;;;;;;;1.42;0.30;;;;;;;;;;2057371;28;20463;-45
2024/02/16 00:37:12;;;;;;;0.60;0.25;;;;;;;;;;2054918;28;20133;-45
2024/02/16 00:38:13;;;;;;;1.88;0.50;;;;;;;;;;2057338;28;20038;-49
2024/02/16 00:39:15;;;;;;;0.40;0.20;;;;;;;;;;2057361;28;20023;-49
2024/02/16 00:40:16;;;;;;;0.95;0.30;;;;;;;;;;2060366;28;20038;-50
2024/02/16 00:41:20;;;;;;;0.85;0.30;;;;;;;;;;2059366;28;20026;-52
2024/02/16 00:42:27;;;;;;;0.75;0.32;;;;;;;;;;2057264;28;20545;-49
2024/02/16 00:43:28;;;;;;;0.65;0.30;;;;;;;;;;2057302;28;20031;-52
2024/02/16 00:44:30;;;;;;;1.60;0.30;;;;;;;;;;2057762;28;20037;-48
2024/02/16 00:45:31;;;;;;;2.25;0.32;;;;;;;;;;2058596;28;20130;-52
2024/02/16 00:46:32;;;;;;;0.93;0.30;;;;;;;;;;2054849;28;20075;-51
2024/02/16 00:47:34;;;;;;;1.00;0.40;;;;;;;;;;2057759;28;20105;-49
2024/02/16 00:48:35;;;;;;;0.43;0.30;;;;;;;;;;2057741;28;20050;-49
2024/02/16 00:49:36;;;;;;;1.00;0.40;;;;;;;;;;2057609;28;20551;-48
2024/02/16 00:50:37;;;;;;;1.35;0.35;;;;;;;;;;2056879;28;20031;-49
2024/02/16 00:51:39;;;;;;;0.40;0.10;;;;;;;;;;2057630;28;20050;-49
2024/02/16 00:52:40;;;;;;;1.13;0.20;;;;;;;;;;2057777;28;20046;-49
2024/02/16 00:53:43;;;;;;;0.47;0.20;;;;;;;;;;2059552;28;20118;-50
2024/02/16 00:54:46;;;;;;;1.40;0.20;;;;;;;;;;2058086;28;20070;-44
2024/02/16 00:55:47;;;;;;;0.80;0.32;;;;;;;;;;2052020;28;20015;-51
2024/02/16 00:56:48;;;;;;;2.17;0.30;;;;;;;;;;2055317;28;20045;-50
2024/02/16 00:57:50;;;;;;;0.50;0.17;;;;;;;;;;2057872;28;20077;-50
2024/02/16 00:58:51;;;;;;;1.30;0.25;;;;;;;;;;2057802;28;20022;-50
2024/02/16 00:59:52;;;;;;;0.47;0.20;;;;;;;;;;2053948;28;20162;-46
2024/02/16 01:00:54;;;;;;;0.50;0.20;;;;;;;;;;2057571;28;20022;-46
2024/02/16 01:01:55;;;;;;;1.10;0.22;;;;;;;;;;2057424;28;20018;-48
2024/02/16 01:02:57;;;;;;;0.95;0.30;;;;;;;;;;2055823;28;20083;-50
2024/02/16 01:03:58;;;;;;;1.65;0.38;;;;;;;;;;2057083;28;20508;-49
2024/02/16 01:05:01;;;;;;;1.10;0.30;;;;;;;;;;2049183;28;20027;-48
2024/02/16 01:06:03;;;;;;;0.30;0.15;;;;;;;;;;2058747;28;20498;-47
2024/02/16 01:07:04;;;;;;;1.23;0.45;;;;;;;;;;2057701;28;20041;-50
2024/02/16 01:08:06;;;;;;;0.60;0.30;;;;;;;;;;2057584;28;20033;-46
2024/02/16 01:09:07;;;;;;;1.77;0.28;;;;;;;;;;2054918;28;20043;-49
2024/02/16 01:10:08;;;;;;;1.08;0.30;;;;;;;;;;2059248;28;20109;-50
2024/02/16 01:11:10;;;;;;;0.32;0.13;;;;;;;;;;2058324;28;20782;-50
2024/02/16 01:12:11;;;;;;;2.38;0.47;;;;;;;;;;2056118;28;20023;-50
2024/02/16 01:13:12;;;;;;;0.57;0.32;;;;;;;;;;2058100;28;20023;-48
2024/02/16 01:14:13;;;;;;;1.48;0.38;;;;;;;;;;2057700;28;20027;-49
2024/02/16 01:15:15;;;;;;;0.60;0.28;;;;;;;;;;2058640;28;20023;-47
2024/02/16 01:16:19;;;;;;;2.03;0.35;;;;;;;;;;2057263;28;20726;-49
2024/02/16 01:17:20;;;;;;;1.00;0.20;;;;;;;;;;2053389;28;20046;-50
2024/02/16 01:18:21;;;;;;;0.82;0.20;;;;;;;;;;2057730;28;20094;-50
2024/02/16 01:19:23;;;;;;;0.52;0.20;;;;;;;;;;2056382;28;20019;-50
2024/02/16 01:20:24;;;;;;;1.10;0.35;;;;;;;;;;2056406;28;20026;-46
2024/02/16 01:21:26;;;;;;;3.10;0.52;;;;;;;;;;2052371;28;20387;-50
2024/02/16 01:22:30;;;;;;;3.13;0.80;;;;;;;;;;2057490;28;20338;-49
2024/02/16 01:23:31;;;;;;;0.32;0.20;;;;;;;;;;2057009;28;20034;-48
2024/02/16 01:24:32;;;;;;;2.00;0.30;;;;;;;;;;2057757;28;20035;-49
2024/02/16 01:25:34;;;;;;;1.00;0.30;;;;;;;;;;2057351;28;20122;-49
2024/02/16 01:26:35;;;;;;;0.73;0.25;;;;;;;;;;2057585;28;20038;-50
2024/02/16 01:27:36;;;;;;;0.93;0.25;;;;;;;;;;2057976;28;20034;-49
2024/02/16 01:28:37;;;;;;;1.38;0.25;;;;;;;;;;2057663;28;20074;-47
2024/02/16 01:29:39;;;;;;;1.40;0.20;;;;;;;;;;2058035;28;20359;-48
2024/02/16 01:30:40;;;;;;;1.95;0.55;;;;;;;;;;2062039;28;20523;-48
2024/02/16 01:31:42;;;;;;;0.68;0.30;;;;;;;;;;2061287;28;20053;-49
2024/02/16 01:32:43;;;;;;;1.38;0.45;;;;;;;;;;2057727;28;20401;-50
2024/02/16 01:33:44;;;;;;;1.55;0.30;;;;;;;;;;2057951;28;20359;-49
2024/02/16 01:34:48;;;;;;;0.50;0.30;;;;;;;;;;2057696;28;20035;-47
2024/02/16 01:35:50;;;;;;;6.10;0.55;;;;;;;;;;2057498;28;20466;-50
2024/02/16 01:36:51;;;;;;;1.00;0.30;;;;;;;;;;2057358;28;20133;-48
2024/02/16 01:37:52;;;;;;;0.65;0.25;;;;;;;;;;2057413;28;20470;-47
2024/02/16 01:38:53;;;;;;;1.55;0.30;;;;;;;;;;2058049;28;20026;-49
2024/02/16 01:39:55;;;;;;;3.42;0.40;;;;;;;;;;2053775;28;20019;-49
2024/02/16 01:40:56;;;;;;;0.22;0.20;;;;;;;;;;2059019;28;20097;-51
2024/02/16 01:41:57;;;;;;;0.47;0.20;;;;;;;;;;2057860;28;20443;-48
2024/02/16 01:42:59;;;;;;;0.75;0.30;;;;;;;;;;2057432;28;20450;-49
2024/02/16 01:44:01;;;;;;;1.17;0.25;;;;;;;;;;2059512;28;20023;-47
2024/02/16 01:45:02;;;;;;;0.35;0.25;;;;;;;;;;2057027;28;20378;-49
2024/02/16 01:46:04;;;;;;;1.98;0.35;;;;;;;;;;2061458;28;20015;-48
2024/02/16 01:47:05;;;;;;;5.47;0.40;;;;;;;;;;2057914;28;20022;-50
2024/02/16 01:48:06;;;;;;;0.40;0.20;;;;;;;;;;2056474;28;20378;-45
2024/02/16 01:49:08;;;;;;;0.80;0.22;;;;;;;;;;2057435;28;20453;-46
2024/02/16 01:50:09;;;;;;;2.40;0.30;;;;;;;;;;2056617;28;20433;-46
2024/02/16 01:51:11;;;;;;;2.80;0.35;;;;;;;;;;2057232;28;20097;-46
2024/02/16 01:52:13;;;;;;;1.92;0.25;;;;;;;;;;2056638;28;20019;-51
2024/02/16 01:53:19;;;;;;;1.48;0.50;;;;;;;;;;2058255;28;20022;-50
2024/02/16 01:54:20;;;;;;;1.10;0.22;;;;;;;;;;2056762;28;20122;-47
2024/02/16 01:55:24;;;;;;;2.45;0.63;;;;;;;;;;2057421;28;20445;-50
2024/02/16 01:56:26;;;;;;;1.30;0.30;;;;;;;;;;2056415;28;20102;-50
2024/02/16 01:57:27;;;;;;;1.25;0.30;;;;;;;;;;2056357;28;20029;-50
2024/02/16 01:58:29;;;;;;;1.75;0.43;;;;;;;;;;2057433;28;20030;-48
2024/02/16 01:59:30;;;;;;;1.25;0.30;;;;;;;;;;2054960;28;20113;-50
2024/02/16 02:00:31;;;;;;;2.65;0.50;;;;;;;;;;2057335;28;20073;-50
2024/02/16 02:01:33;;;;;;;2.03;0.30;;;;;;;;;;2055500;28;20019;-48
2024/02/16 02:02:37;;;;;;;0.47;0.25;;;;;;;;;;2058850;28;20021;-49
2024/02/16 02:03:38;;;;;;;0.95;0.30;;;;;;;;;;2058331;28;20041;-49
2024/02/16 02:04:39;;;;;;;0.50;0.22;;;;;;;;;;2057465;28;20568;-46
2024/02/16 02:05:47;;;;;;;0.88;0.25;;;;;;;;;;2056948;28;20031;-49
2024/02/16 02:06:48;;;;;;;0.90;0.20;;;;;;;;;;2057060;28;20121;-48
2024/02/16 02:07:50;;;;;;;1.17;0.45;;;;;;;;;;2057833;28;20099;-46
2024/02/16 02:08:52;;;;;;;1.55;0.38;;;;;;;;;;2057171;28;20037;-48
2024/02/16 02:09:53;;;;;;;1.98;0.20;;;;;;;;;;2057259;28;20019;-50
2024/02/16 02:10:54;;;;;;;1.23;0.40;;;;;;;;;;2055992;28;20058;-47
2024/02/16 02:11:56;;;;;;;1.10;0.40;;;;;;;;;;2056554;28;20075;-48
2024/02/16 02:12:57;;;;;;;1.27;0.30;;;;;;;;;;2057190;28;20061;-48
2024/02/16 02:13:58;;;;;;;1.45;0.30;;;;;;;;;;2057000;28;20093;-49
2024/02/16 02:14:59;;;;;;;2.55;0.38;;;;;;;;;;2056680;28;20102;-48
2024/02/16 02:16:01;;;;;;;1.95;0.30;;;;;;;;;;2056824;28;20023;-48
2024/02/16 02:17:03;;;;;;;1.95;0.35;;;;;;;;;;2058948;28;20076;-50
2024/02/16 02:18:04;;;;;;;0.65;0.22;;;;;;;;;;2056840;28;20133;-49
2024/02/16 02:19:05;;;;;;;2.42;0.30;;;;;;;;;;2055704;28;20026;-50
2024/02/16 02:20:10;;;;;;;0.90;0.20;;;;;;;;;;2056866;28;20038;-43
2024/02/16 02:21:14;;;;;;;1.20;0.40;;;;;;;;;;2056882;28;20034;-44
2024/02/16 02:22:17;;;;;;;1.20;0.35;;;;;;;;;;2057135;28;20109;-45
2024/02/16 02:23:19;;;;;;;2.05;0.35;;;;;;;;;;2055624;28;20042;-44
2024/02/16 02:24:21;;;;;;;1.20;0.28;;;;;;;;;;2058792;28;20073;-44
2024/02/16 02:25:22;;;;;;;1.25;0.20;;;;;;;;;;2056284;28;20046;-45
2024/02/16 02:26:23;;;;;;;0.75;0.20;;;;;;;;;;2057673;28;20085;-45
2024/02/16 02:27:25;;;;;;;0.95;0.30;;;;;;;;;;2056814;28;20058;-45
2024/02/16 02:28:26;;;;;;;1.35;0.25;;;;;;;;;;2059162;28;20076;-44
2024/02/16 02:29:27;;;;;;;1.00;0.30;;;;;;;;;;2057029;28;20027;-45
2024/02/16 02:30:28;;;;;;;1.60;0.30;;;;;;;;;;2058109;28;20023;-45
2024/02/16 02:31:30;;;;;;;0.70;0.38;;;;;;;;;;2056903;28;20029;-43
2024/02/16 02:32:31;;;;;;;1.30;0.45;;;;;;;;;;2056476;28;20019;-44
2024/02/16 02:33:32;;;;;;;3.38;0.50;;;;;;;;;;2056104;28;20085;-45
2024/02/16 02:34:33;;;;;;;1.15;0.50;;;;;;;;;;2052197;28;20571;-45
2024/02/16 02:35:35;;;;;;;3.17;0.50;;;;;;;;;;2056869;28;20174;-44
2024/02/16 02:36:36;;;;;;;1.55;0.35;;;;;;;;;;2056895;28;20030;-45
2024/02/16 02:37:38;;;;;;;2.17;0.40;;;;;;;;;;2056651;28;20022;-44
2024/02/16 02:38:39;;;;;;;1.13;0.40;;;;;;;;;;2057007;28;20097;-45
2024/02/16 02:39:41;;;;;;;0.88;0.30;;;;;;;;;;2056129;28;20033;-45
2024/02/16 02:40:42;;;;;;;0.68;0.30;;;;;;;;;;2057075;28;20023;-44
2024/02/16 02:41:43;;;;;;;2.08;0.43;;;;;;;;;;2056743;28;20035;-44
2024/02/16 02:42:44;;;;;;;1.40;0.30;;;;;;;;;;2057430;28;20553;-44
2024/02/16 02:43:46;;;;;;;2.70;0.35;;;;;;;;;;2056804;28;20019;-43
2024/02/16 02:44:50;;;;;;;0.85;0.30;;;;;;;;;;2055986;28;20042;-45
2024/02/16 02:45:51;;;;;;;1.10;0.32;;;;;;;;;;2056183;28;20050;-44
2024/02/16 02:46:52;;;;;;;1.98;0.47;;;;;;;;;;2055316;28;20023;-44
2024/02/16 02:47:53;;;;;;;0.75;0.30;;;;;;;;;;2056861;28;20026;-44
2024/02/16 02:48:55;;;;;;;0.40;0.20;;;;;;;;;;2056664;28;20027;-43
2024/02/16 02:49:56;;;;;;;1.73;0.38;;;;;;;;;;2056707;28;20367;-43
2024/02/16 02:50:59;;;;;;;2.38;0.47;;;;;;;;;;2056555;28;20410;-44
2024/02/16 02:52:01;;;;;;;1.88;0.30;;;;;;;;;;2056020;28;20039;-44
2024/02/16 02:53:02;;;;;;;1.10;0.20;;;;;;;;;;2056457;28;20737;-44
2024/02/16 02:54:04;;;;;;;2.50;0.30;;;;;;;;;;2055978;28;20075;-45
2024/02/16 02:55:05;;;;;;;0.95;0.35;;;;;;;;;;2056638;28;20031;-44
2024/02/16 02:56:07;;;;;;;1.58;0.22;;;;;;;;;;2056882;28;20023;-43
2024/02/16 02:57:10;;;;;;;2.47;0.40;;;;;;;;;;2057712;28;20110;-44
2024/02/16 02:58:11;;;;;;;2.58;0.40;;;;;;;;;;2060661;28;20093;-44
2024/02/16 02:59:12;;;;;;;2.60;0.50;;;;;;;;;;2056028;28;20058;-44
2024/02/16 03:00:15;;;;;;;2.38;0.30;;;;;;;;;;2056315;28;20395;-45
2024/02/16 03:01:16;;;;;;;1.45;0.40;;;;;;;;;;2056406;28;20030;-44
2024/02/16 03:02:17;;;;;;;1.02;0.20;;;;;;;;;;2056859;28;20038;-44
2024/02/16 03:03:20;;;;;;;0.77;0.32;;;;;;;;;;2056520;28;20018;-44
2024/02/16 03:04:21;;;;;;;4.07;0.45;;;;;;;;;;2055177;28;20536;-44
2024/02/16 03:05:22;;;;;;;2.10;0.40;;;;;;;;;;2056490;28;20027;-44
2024/02/16 03:06:23;;;;;;;1.00;0.30;;;;;;;;;;2048014;28;20470;-43
2024/02/16 03:07:26;;;;;;;1.02;0.40;;;;;;;;;;2048149;28;20032;-44
2024/02/16 03:08:27;;;;;;;1.15;0.40;;;;;;;;;;2058059;28;20026;-44
2024/02/16 03:09:28;;;;;;;1.65;0.28;;;;;;;;;;2054393;28;20140;-44
2024/02/16 03:10:34;;;;;;;1.90;0.28;;;;;;;;;;2053836;28;20023;-44
2024/02/16 03:11:36;;;;;;;2.13;0.30;;;;;;;;;;2054447;28;20042;-44
2024/02/16 03:12:37;;;;;;;1.80;0.30;;;;;;;;;;2056635;28;20015;-44
2024/02/16 03:13:40;;;;;;;1.15;0.50;;;;;;;;;;2056825;28;20023;-43
2024/02/16 03:14:41;;;;;;;3.22;0.40;;;;;;;;;;2056544;28;20030;-44
2024/02/16 03:15:43;;;;;;;2.28;0.35;;;;;;;;;;2057729;28;20387;-45
2024/02/16 03:16:44;;;;;;;2.15;0.30;;;;;;;;;;2054773;28;20011;-45
2024/02/16 03:17:45;;;;;;;1.70;0.25;;;;;;;;;;2056470;28;20406;-45
2024/02/16 03:18:46;;;;;;;1.05;0.30;;;;;;;;;;2056715;28;20038;-45
2024/02/16 03:19:48;;;;;;;3.72;0.65;;;;;;;;;;2059702;28;20018;-45
2024/02/16 03:20:50;;;;;;;1.10;0.30;;;;;;;;;;2056406;28;20370;-44
2024/02/16 03:21:51;;;;;;;1.30;0.52;;;;;;;;;;2055770;28;20473;-45
2024/02/16 03:22:52;;;;;;;1.95;0.30;;;;;;;;;;2056097;28;20465;-45
2024/02/16 03:23:53;;;;;;;0.63;0.30;;;;;;;;;;2056317;28;20007;-44
2024/02/16 03:24:55;;;;;;;2.25;0.45;;;;;;;;;;2056454;28;20031;-46
2024/02/16 03:25:56;;;;;;;3.13;0.40;;;;;;;;;;2056605;28;20073;-45
2024/02/16 03:26:58;;;;;;;3.25;0.75;;;;;;;;;;2056490;28;20402;-44
2024/02/16 03:28:00;;;;;;;2.63;0.32;;;;;;;;;;2056280;28;20485;-44
2024/02/16 03:29:03;;;;;;;1.40;0.30;;;;;;;;;;2056450;28;20556;-45
2024/02/16 03:30:04;;;;;;;2.22;0.57;;;;;;;;;;2056708;28;20058;-45
2024/02/16 03:31:05;;;;;;;1.55;0.35;;;;;;;;;;2056067;28;20114;-45
2024/02/16 03:32:07;;;;;;;2.53;0.40;;;;;;;;;;2056453;28;20165;-45
2024/02/16 03:33:08;;;;;;;4.57;0.40;;;;;;;;;;2056610;28;20031;-45
2024/02/16 03:34:09;;;;;;;1.67;0.40;;;;;;;;;;2056089;28;20027;-45
2024/02/16 03:35:11;;;;;;;0.90;0.30;;;;;;;;;;2056749;28;20022;-45
2024/02/16 03:36:13;;;;;;;2.95;0.85;;;;;;;;;;2054811;28;20019;-45
2024/02/16 03:37:15;;;;;;;2.40;0.50;;;;;;;;;;2055650;28;20011;-45
2024/02/16 03:38:17;;;;;;;1.77;0.40;;;;;;;;;;2061324;28;20042;-45
2024/02/16 03:39:20;;;;;;;2.67;0.50;;;;;;;;;;2056071;28;20026;-44
2024/02/16 03:40:21;;;;;;;2.05;0.40;;;;;;;;;;2058271;28;20488;-46
2024/02/16 03:41:23;;;;;;;1.67;0.28;;;;;;;;;;2059982;28;20081;-45
2024/02/16 03:42:24;;;;;;;1.15;0.50;;;;;;;;;;2055718;28;20022;-46
2024/02/16 03:43:26;;;;;;;1.52;0.40;;;;;;;;;;2056288;28;20086;-46
2024/02/16 03:44:27;;;;;;;2.33;0.35;;;;;;;;;;2056674;28;20520;-46
2024/02/16 03:45:28;;;;;;;3.85;0.35;;;;;;;;;;2055643;28;20030;-45
2024/02/16 03:46:30;;;;;;;2.45;0.28;;;;;;;;;;2055825;28;20031;-46
2024/02/16 03:47:31;;;;;;;0.85;0.40;;;;;;;;;;2056011;28;20038;-46
2024/02/16 03:48:32;;;;;;;2.00;0.70;;;;;;;;;;2059311;28;20184;-49
2024/02/16 03:49:34;;;;;;;2.10;0.30;;;;;;;;;;2056516;28;20022;-45
2024/02/16 03:50:35;;;;;;;2.22;0.50;;;;;;;;;;2058542;28;20038;-45
2024/02/16 03:51:37;;;;;;;2.58;0.30;;;;;;;;;;2056246;28;20371;-45
2024/02/16 03:52:38;;;;;;;1.55;0.35;;;;;;;;;;2055783;28;20038;-44
2024/02/16 03:53:39;;;;;;;3.28;0.55;;;;;;;;;;2055479;28;20394;-46
2024/02/16 03:54:43;;;;;;;2.03;0.50;;;;;;;;;;2055551;28;20121;-43
2024/02/16 03:55:44;;;;;;;0.73;0.30;;;;;;;;;;2055688;28;20380;-43
2024/02/16 03:56:46;;;;;;;3.22;0.40;;;;;;;;;;2055702;28;20023;-43
2024/02/16 03:57:47;;;;;;;1.80;0.55;;;;;;;;;;2055961;28;20054;-44
2024/02/16 03:58:48;;;;;;;0.98;0.20;;;;;;;;;;2059042;28;20116;-43
2024/02/16 03:59:54;;;;;;;1.13;0.40;;;;;;;;;;2058288;28;20019;-44
2024/02/16 04:00:55;;;;;;;1.00;0.50;;;;;;;;;;2058369;28;20023;-45
2024/02/16 04:01:56;;;;;;;3.67;0.40;;;;;;;;;;2050418;28;20026;-43
2024/02/16 04:02:59;;;;;;;1.45;0.47;;;;;;;;;;2044040;28;20698;-45
2024/02/16 04:04:00;;;;;;;1.48;0.40;;;;;;;;;;2056942;28;20082;-44
2024/02/16 04:05:03;;;;;;;1.48;0.50;;;;;;;;;;2058976;28;20042;-43
2024/02/16 04:06:04;;;;;;;3.15;0.55;;;;;;;;;;2058754;28;20034;-43
2024/02/16 04:07:09;;;;;;;4.47;0.35;;;;;;;;;;2059104;28;20037;-44
2024/02/16 04:08:10;;;;;;;1.48;0.30;;;;;;;;;;2055734;28;20066;-44
2024/02/16 04:09:12;;;;;;;1.17;0.30;;;;;;;;;;2051646;28;20043;-44
2024/02/16 04:10:13;;;;;;;2.72;0.22;;;;;;;;;;2050404;28;20043;-43
2024/02/16 04:11:15;;;;;;;1.80;0.40;;;;;;;;;;2058955;28;20490;-43
2024/02/16 04:12:16;;;;;;;1.77;0.43;;;;;;;;;;2056713;28;20035;-44
2024/02/16 04:13:17;;;;;;;1.77;0.38;;;;;;;;;;2057438;28;20058;-43
2024/02/16 04:14:19;;;;;;;2.22;0.40;;;;;;;;;;2055937;28;20023;-44
2024/02/16 04:15:20;;;;;;;3.78;0.55;;;;;;;;;;2059305;28;20023;-44
2024/02/16 04:16:24;;;;;;;1.95;0.22;;;;;;;;;;2059020;28;20023;-45
2024/02/16 04:17:25;;;;;;;1.38;0.28;;;;;;;;;;2058774;28;20493;-43
2024/02/16 04:18:27;;;;;;;2.03;0.52;;;;;;;;;;2059359;28;20491;-43
2024/02/16 04:19:28;;;;;;;1.55;0.50;;;;;;;;;;2055962;28;20065;-44
2024/02/16 04:20:29;;;;;;;0.40;0.20;;;;;;;;;;2059102;28;20046;-45
2024/02/16 04:21:31;;;;;;;2.60;0.55;;;;;;;;;;2058287;28;20102;-44
2024/02/16 04:22:37;;;;;;;1.67;0.70;;;;;;;;;;2050535;28;20023;-44
2024/02/16 04:23:38;;;;;;;5.03;0.60;;;;;;;;;;2058390;28;20030;-43
2024/02/16 04:24:39;;;;;;;1.02;0.38;;;;;;;;;;2058812;28;20027;-44
2024/02/16 04:25:41;;;;;;;1.73;0.40;;;;;;;;;;2058993;28;20110;-44
2024/02/16 04:26:42;;;;;;;0.90;0.30;;;;;;;;;;2063655;28;20425;-44
2024/02/16 04:27:43;;;;;;;1.05;0.22;;;;;;;;;;2059032;28;20378;-46
2024/02/16 04:28:44;;;;;;;5.80;3.80;;;;;;;;;;2058434;28;20110;-43
2024/02/16 04:29:46;;;;;;;1.42;0.35;;;;;;;;;;2058400;28;20931;-45
2024/02/16 04:30:47;;;;;;;1.55;0.60;;;;;;;;;;2057313;28;20060;-48
2024/02/16 04:31:48;;;;;;;4.43;0.50;;;;;;;;;;2057612;28;20572;-48
2024/02/16 04:32:49;;;;;;;1.30;0.50;;;;;;;;;;2058892;28;20027;-48
2024/02/16 04:33:51;;;;;;;2.67;0.28;;;;;;;;;;2059799;28;20107;-47
2024/02/16 04:34:52;;;;;;;2.55;0.60;;;;;;;;;;2053725;28;20462;-47
2024/02/16 04:35:54;;;;;;;0.90;0.40;;;;;;;;;;2057314;28;20121;-48
2024/02/16 04:36:55;;;;;;;1.67;0.30;;;;;;;;;;2055802;28;20023;-49
2024/02/16 04:37:56;;;;;;;3.30;0.25;;;;;;;;;;2060606;28;20122;-48
2024/02/16 04:38:57;;;;;;;2.35;0.60;;;;;;;;;;2058192;28;20025;-44
2024/02/16 04:39:59;;;;;;;3.08;0.32;;;;;;;;;;2058168;28;20027;-44
2024/02/16 04:41:00;;;;;;;1.05;0.45;;;;;;;;;;2055845;28;20027;-45
2024/02/16 04:42:01;;;;;;;0.90;0.22;;;;;;;;;;2058160;28;20030;-44
2024/02/16 04:43:02;;;;;;;2.13;0.40;;;;;;;;;;2058889;28;20081;-44
2024/02/16 04:44:04;;;;;;;2.55;0.50;;;;;;;;;;2058579;28;20073;-49
2024/02/16 04:45:05;;;;;;;0.93;0.45;;;;;;;;;;2058751;28;20102;-48
2024/02/16 04:46:07;;;;;;;3.90;0.65;;;;;;;;;;2060549;28;20018;-44
2024/02/16 04:47:09;;;;;;;3.17;0.40;;;;;;;;;;2058691;28;20031;-44
2024/02/16 04:48:10;;;;;;;1.63;0.30;;;;;;;;;;2056787;28;20033;-45
2024/02/16 04:49:11;;;;;;;2.28;0.30;;;;;;;;;;2057992;28;20537;-44
2024/02/16 04:50:13;;;;;;;1.63;0.30;;;;;;;;;;2058510;28;20047;-45
2024/02/16 04:51:15;;;;;;;3.88;0.40;;;;;;;;;;2058730;28;20043;-44
2024/02/16 04:52:16;;;;;;;1.25;0.35;;;;;;;;;;2059488;28;20082;-46
2024/02/16 04:53:17;;;;;;;0.98;0.10;;;;;;;;;;2058669;28;20498;-48
2024/02/16 04:54:18;;;;;;;1.60;0.28;;;;;;;;;;2058588;28;20039;-49
2024/02/16 04:55:20;;;;;;;2.25;0.40;;;;;;;;;;2060535;28;20488;-49
2024/02/16 04:56:22;;;;;;;0.77;0.30;;;;;;;;;;2057659;28;20042;-49
2024/02/16 04:57:24;;;;;;;4.55;0.45;;;;;;;;;;2063932;28;20097;-50
2024/02/16 04:58:25;;;;;;;1.70;0.30;;;;;;;;;;2063268;28;20037;-47
2024/02/16 04:59:27;;;;;;;0.65;0.30;;;;;;;;;;2058420;28;20098;-50
2024/02/16 05:00:29;;;;;;;1.90;0.40;;;;;;;;;;2063728;28;20106;-48
2024/02/16 05:01:31;;;;;;;2.80;0.40;;;;;;;;;;2054301;28;20054;-48
2024/02/16 05:02:32;;;;;;;0.73;0.20;;;;;;;;;;2061270;28;20022;-47
2024/02/16 05:03:33;;;;;;;0.90;0.30;;;;;;;;;;2065485;28;20386;-51
2024/02/16 05:04:35;;;;;;;0.85;0.20;;;;;;;;;;2059565;28;20125;-51
2024/02/16 05:05:36;;;;;;;1.83;0.20;;;;;;;;;;2058925;28;20033;-51
2024/02/16 05:06:40;;;;;;;1.13;0.30;;;;;;;;;;2060417;28;20101;-50
2024/02/16 05:07:47;;;;;;;1.02;0.30;;;;;;;;;;2058196;28;20105;-50
2024/02/16 05:08:50;;;;;;;3.03;0.50;;;;;;;;;;2062550;28;20112;-50
2024/02/16 05:09:55;;;;;;;0.77;0.25;;;;;;;;;;2057775;28;20022;-50
2024/02/16 05:10:57;;;;;;;1.27;0.30;;;;;;;;;;2061280;28;20068;-50
2024/02/16 05:11:58;;;;;;;1.13;0.30;;;;;;;;;;2062840;28;20038;-49
2024/02/16 05:12:59;;;;;;;1.60;0.40;;;;;;;;;;2058948;28;20704;-50
2024/02/16 05:14:00;;;;;;;1.80;0.22;;;;;;;;;;2057374;28;20030;-49
2024/02/16 05:15:02;;;;;;;2.05;0.45;;;;;;;;;;2058482;28;20387;-50
2024/02/16 05:16:08;;;;;;;0.57;0.30;;;;;;;;;;2059579;28;20037;-47
2024/02/16 05:17:09;;;;;;;1.98;0.35;;;;;;;;;;2065247;28;20093;-49
2024/02/16 05:18:12;;;;;;;1.25;0.40;;;;;;;;;;2059720;28;20030;-49
2024/02/16 05:19:14;;;;;;;2.30;0.98;;;;;;;;;;2060429;28;20023;-47
2024/02/16 05:20:15;;;;;;;1.27;0.32;;;;;;;;;;2063789;28;20026;-49
2024/02/16 05:21:16;;;;;;;0.70;0.28;;;;;;;;;;2057908;28;20031;-49
2024/02/16 05:22:24;;;;;;;1.73;0.32;;;;;;;;;;2064461;28;20088;-49
2024/02/16 05:23:25;;;;;;;1.35;0.40;;;;;;;;;;2059753;28;20040;-49
2024/02/16 05:24:26;;;;;;;2.95;0.50;;;;;;;;;;2060405;28;20018;-50
2024/02/16 05:25:27;;;;;;;0.77;0.38;;;;;;;;;;2061007;28;20030;-46
2024/02/16 05:26:29;;;;;;;1.75;0.40;;;;;;;;;;2062040;28;20026;-52
2024/02/16 05:27:30;;;;;;;1.45;0.45;;;;;;;;;;2058824;28;20026;-50
2024/02/16 05:28:31;;;;;;;3.08;0.43;;;;;;;;;;2058594;28;20026;-50
2024/02/16 05:29:33;;;;;;;1.65;0.20;;;;;;;;;;2055798;28;20093;-50
2024/02/16 05:30:34;;;;;;;4.28;0.65;;;;;;;;;;2056741;28;20054;-45
2024/02/16 05:31:35;;;;;;;1.02;0.40;;;;;;;;;;2054999;28;20029;-49
2024/02/16 05:32:37;;;;;;;1.48;0.40;;;;;;;;;;2057505;28;20027;-51
2024/02/16 05:33:38;;;;;;;2.78;0.40;;;;;;;;;;2060638;28;20030;-49
2024/02/16 05:34:39;;;;;;;3.33;0.70;;;;;;;;;;2064059;28;20034;-49
2024/02/16 05:35:44;;;;;;;1.95;0.60;;;;;;;;;;2063418;28;20026;-50
2024/02/16 05:36:45;;;;;;;2.08;0.80;;;;;;;;;;2062700;28;20028;-49
2024/02/16 05:37:51;;;;;;;2.63;0.38;;;;;;;;;;2062727;28;20474;-49
2024/02/16 05:38:54;;;;;;;2.67;0.82;;;;;;;;;;2059007;28;20024;-49
2024/02/16 05:40:08;;;;;;;1.42;0.30;;;;;;;;;;2049585;29;20020;-49
2024/02/16 05:41:09;;;;;;;1.92;0.47;;;;;;;;;;2056944;28;20093;-51
2024/02/16 05:42:10;;;;;;;4.25;0.82;;;;;;;;;;2055921;28;20102;-49
2024/02/16 05:43:12;;;;;;;2.03;0.50;;;;;;;;;;2056762;28;20449;-51
2024/02/16 05:44:13;;;;;;;1.80;0.38;;;;;;;;;;2055415;28;20553;-52
2024/02/16 05:45:15;;;;;;;1.52;0.65;;;;;;;;;;2056346;28;20160;-50
2024/02/16 05:46:16;;;;;;;2.65;0.60;;;;;;;;;;2057167;28;20055;-49
2024/02/16 05:47:18;;;;;;;1.48;0.30;;;;;;;;;;2058556;28;20106;-48
2024/02/16 05:48:19;;;;;;;3.33;0.50;;;;;;;;;;2059357;28;20106;-49
2024/02/16 05:49:20;;;;;;;2.00;0.60;;;;;;;;;;2058173;28;20031;-50
2024/02/16 05:50:22;;;;;;;1.50;0.40;;;;;;;;;;2057153;28;20093;-45
2024/02/16 05:51:23;;;;;;;1.27;0.30;;;;;;;;;;2058079;28;20031;-45
2024/02/16 05:52:25;;;;;;;3.38;0.52;;;;;;;;;;2063918;28;20026;-44
2024/02/16 05:53:26;;;;;;;0.95;0.28;;;;;;;;;;2061739;28;20036;-44
2024/02/16 05:54:27;;;;;;;1.02;0.40;;;;;;;;;;2057117;28;20018;-44
2024/02/16 05:55:29;;;;;;;2.80;0.47;;;;;;;;;;2057366;28;20085;-44
2024/02/16 05:56:33;;;;;;;1.65;0.40;;;;;;;;;;2057209;28;20019;-43
2024/02/16 05:57:35;;;;;;;2.55;0.50;;;;;;;;;;2057494;28;20023;-43
2024/02/16 05:58:36;;;;;;;2.80;0.90;;;;;;;;;;2057342;28;20102;-45
2024/02/16 05:59:37;;;;;;;1.63;0.50;;;;;;;;;;2057172;28;20433;-44
2024/02/16 06:00:39;;;;;;;2.75;0.68;;;;;;;;;;2064778;28;20068;-44
2024/02/16 06:01:40;;;;;;;3.42;0.80;;;;;;;;;;2060865;28;20030;-44
2024/02/16 06:02:42;;;;;;;2.55;0.43;;;;;;;;;;2049778;28;20106;-43
2024/02/16 06:03:44;;;;;;;1.83;0.57;;;;;;;;;;2057097;28;20023;-44
2024/02/16 06:04:45;;;;;;;2.75;0.65;;;;;;;;;;2057563;28;20019;-45
2024/02/16 06:05:46;;;;;;;1.42;0.50;;;;;;;;;;2056962;28;20018;-46
2024/02/16 06:06:47;;;;;;;2.17;0.63;;;;;;;;;;2056870;28;20512;-46
2024/02/16 06:07:49;;;;;;;2.00;0.40;;;;;;;;;;2057658;28;20085;-45
2024/02/16 06:08:50;;;;;;;1.83;0.73;;;;;;;;;;2057909;28;20081;-44
2024/02/16 06:09:51;;;;;;;2.42;0.43;;;;;;;;;;2057421;28;20101;-45